Terminal Aerodrome Forecast
Issued by NWS

Home | Current Version | Previous Version | Text Only | Print | Product List | Glossary On
Versions: 1 2 3 4 5 6 7 8 9 10 11 12 13 14 15 16 17 18 19 20 21 22 23 24 25 26 27 28 29 30 31 32 33 34 35 36 37 38 39 40 41 42 43 44 45 46 47 48 49 50
044
FTUS43 KGRR 170104 AAA
TAFAZO
TAF AMD
KAZO 170104Z 1701/1724 VRB03KT P6SM VCTS BKN050CB
     FM170600 00000KT 6SM BR OVC025
     FM170800 00000KT 2SM BR OVC003
     FM171500 35003KT 4SM BR OVC007
     FM171600 35004KT P6SM OVC015
     FM171800 36006KT P6SM BKN050=

USA.gov is the U.S. government's official web portal to all federal, state and local government web resources and services.